sensor_id;sensor_type;location;lat;lon;timestamp;pressure;altitude;pressure_sealevel;temperature;humidity
46954;BME280;32707;43.886;12.874;2022-09-03T00:01:49;101285.19;;;19.91;70.46
46954;BME280;32707;43.886;12.874;2022-09-03T00:04:25;101286.41;;;19.90;70.24
46954;BME280;32707;43.886;12.874;2022-09-03T00:07:07;101292.09;;;19.90;70.78
46954;BME280;32707;43.886;12.874;2022-09-03T00:09:42;101295.75;;;19.91;70.79
46954;BME280;32707;43.886;12.874;2022-09-03T00:12:13;101288.44;;;19.90;70.57
46954;BME280;32707;43.886;12.874;2022-09-03T00:14:46;101277.81;;;19.87;71.03
46954;BME280;32707;43.886;12.874;2022-09-03T00:17:20;101280.66;;;19.87;70.85
46954;BME280;32707;43.886;12.874;2022-09-03T00:19:56;101275.34;;;19.85;70.97
46954;BME280;32707;43.886;12.874;2022-09-03T00:22:28;101283.41;;;19.83;70.96
46954;BME280;32707;43.886;12.874;2022-09-03T00:24:57;101278.47;;;19.80;71.44
46954;BME280;32707;43.886;12.874;2022-09-03T00:27:28;101291.50;;;19.81;71.47
46954;BME280;32707;43.886;12.874;2022-09-03T00:30:12;101300.28;;;19.76;71.57
46954;BME280;32707;43.886;12.874;2022-09-03T00:32:42;101304.97;;;19.68;71.58
46954;BME280;32707;43.886;12.874;2022-09-03T00:35:34;101293.16;;;19.66;71.81
46954;BME280;32707;43.886;12.874;2022-09-03T00:38:02;101301.22;;;19.64;71.84
46954;BME280;32707;43.886;12.874;2022-09-03T00:43:08;101295.19;;;19.66;72.03
46954;BME280;32707;43.886;12.874;2022-09-03T00:45:43;101293.53;;;19.65;71.88
46954;BME280;32707;43.886;12.874;2022-09-03T00:48:27;101296.81;;;19.67;72.23
46954;BME280;32707;43.886;12.874;2022-09-03T00:51:04;101297.75;;;19.71;72.04
46954;BME280;32707;43.886;12.874;2022-09-03T01:02:13;101298.75;;;19.62;72.05
46954;BME280;32707;43.886;12.874;2022-09-03T01:07:35;101296.28;;;19.61;72.55
46954;BME280;32707;43.886;12.874;2022-09-03T01:10:15;101303.09;;;19.56;72.51
46954;BME280;32707;43.886;12.874;2022-09-03T01:13:11;101315.19;;;19.53;72.42
46954;BME280;32707;43.886;12.874;2022-09-03T01:18:32;101307.41;;;19.50;73.10
46954;BME280;32707;43.886;12.874;2022-09-03T01:26:50;101318.69;;;19.47;72.95
46954;BME280;32707;43.886;12.874;2022-09-03T01:29:25;101317.75;;;19.42;73.03
46954;BME280;32707;43.886;12.874;2022-09-03T01:32:09;101313.66;;;19.40;73.32
46954;BME280;32707;43.886;12.874;2022-09-03T01:37:49;101330.59;;;19.36;73.08
46954;BME280;32707;43.886;12.874;2022-09-03T01:40:31;101326.13;;;19.35;73.19
46954;BME280;32707;43.886;12.874;2022-09-03T01:46:18;101340.31;;;19.35;73.57
46954;BME280;32707;43.886;12.874;2022-09-03T01:51:21;101332.25;;;19.37;73.46
46954;BME280;32707;43.886;12.874;2022-09-03T01:57:00;101336.34;;;19.40;73.39
46954;BME280;32707;43.886;12.874;2022-09-03T01:59:33;101339.56;;;19.38;73.44
46954;BME280;32707;43.886;12.874;2022-09-03T02:02:06;101329.41;;;19.37;73.66
46954;BME280;32707;43.886;12.874;2022-09-03T02:04:33;101333.50;;;19.40;73.58
46954;BME280;32707;43.886;12.874;2022-09-03T02:07:00;101333.97;;;19.42;73.68
46954;BME280;32707;43.886;12.874;2022-09-03T02:09:26;101326.25;;;19.42;73.78
46954;BME280;32707;43.886;12.874;2022-09-03T02:12:02;101324.19;;;19.39;73.59
46954;BME280;32707;43.886;12.874;2022-09-03T02:14:31;101327.38;;;19.38;73.73
46954;BME280;32707;43.886;12.874;2022-09-03T02:16:58;101316.41;;;19.36;73.85
46954;BME280;32707;43.886;12.874;2022-09-03T02:19:26;101319.25;;;19.36;74.10
46954;BME280;32707;43.886;12.874;2022-09-03T02:21:53;101314.22;;;19.30;73.86
46954;BME280;32707;43.886;12.874;2022-09-03T02:24:20;101312.84;;;19.23;74.20
46954;BME280;32707;43.886;12.874;2022-09-03T02:26:46;101309.56;;;19.21;74.53
46954;BME280;32707;43.886;12.874;2022-09-03T02:29:13;101310.69;;;19.17;74.52
46954;BME280;32707;43.886;12.874;2022-09-03T02:31:39;101303.72;;;19.14;74.34
46954;BME280;32707;43.886;12.874;2022-09-03T02:34:05;101303.72;;;19.14;74.42
46954;BME280;32707;43.886;12.874;2022-09-03T02:36:36;101297.59;;;19.12;74.74
46954;BME280;32707;43.886;12.874;2022-09-03T02:39:03;101306.84;;;19.09;74.52
46954;BME280;32707;43.886;12.874;2022-09-03T02:41:29;101313.25;;;19.06;74.82
46954;BME280;32707;43.886;12.874;2022-09-03T02:46:34;101320.03;;;19.01;75.03
46954;BME280;32707;43.886;12.874;2022-09-03T02:49:03;101322.03;;;19.01;74.97
46954;BME280;32707;43.886;12.874;2022-09-03T02:51:34;101320.41;;;19.00;75.02
46954;BME280;32707;43.886;12.874;2022-09-03T02:54:00;101316.25;;;18.97;74.92
46954;BME280;32707;43.886;12.874;2022-09-03T02:56:25;101311.88;;;19.00;75.28
46954;BME280;32707;43.886;12.874;2022-09-03T02:58:52;101312.25;;;18.98;75.42
46954;BME280;32707;43.886;12.874;2022-09-03T03:01:18;101315.09;;;18.98;75.15
46954;BME280;32707;43.886;12.874;2022-09-03T03:03:44;101312.59;;;18.97;75.34
46954;BME280;32707;43.886;12.874;2022-09-03T03:06:10;101310.88;;;18.92;75.70
46954;BME280;32707;43.886;12.874;2022-09-03T03:08:37;101311.97;;;18.88;75.72
46954;BME280;32707;43.886;12.874;2022-09-03T03:11:03;101309.88;;;18.84;75.82
46954;BME280;32707;43.886;12.874;2022-09-03T03:13:30;101306.19;;;18.84;75.79
46954;BME280;32707;43.886;12.874;2022-09-03T03:15:57;101295.22;;;18.82;75.74
46954;BME280;32707;43.886;12.874;2022-09-03T03:18:23;101297.59;;;18.80;75.79
46954;BME280;32707;43.886;12.874;2022-09-03T03:20:49;101294.28;;;18.78;75.85
46954;BME280;32707;43.886;12.874;2022-09-03T03:23:15;101305.63;;;18.78;75.84
46954;BME280;32707;43.886;12.874;2022-09-03T03:25:40;101303.53;;;18.75;76.07
46954;BME280;32707;43.886;12.874;2022-09-03T03:28:06;101306.38;;;18.75;76.01
46954;BME280;32707;43.886;12.874;2022-09-03T03:30:32;101305.44;;;18.71;76.07
46954;BME280;32707;43.886;12.874;2022-09-03T03:32:58;101310.75;;;18.73;76.22
46954;BME280;32707;43.886;12.874;2022-09-03T03:35:25;101300.16;;;18.70;76.31
46954;BME280;32707;43.886;12.874;2022-09-03T03:37:50;101311.09;;;18.71;76.50
46954;BME280;32707;43.886;12.874;2022-09-03T03:40:16;101307.44;;;18.71;76.43
46954;BME280;32707;43.886;12.874;2022-09-03T03:42:42;101303.81;;;18.70;76.59
46954;BME280;32707;43.886;12.874;2022-09-03T03:45:08;101298.94;;;18.71;76.75
46954;BME280;32707;43.886;12.874;2022-09-03T03:47:35;101312.31;;;18.70;76.64
46954;BME280;32707;43.886;12.874;2022-09-03T03:50:01;101311.41;;;18.66;76.49
46954;BME280;32707;43.886;12.874;2022-09-03T03:52:27;101309.38;;;18.67;76.82
46954;BME280;32707;43.886;12.874;2022-09-03T03:54:53;101303.63;;;18.63;76.72
46954;BME280;32707;43.886;12.874;2022-09-03T03:57:20;101296.56;;;18.57;76.80
46954;BME280;32707;43.886;12.874;2022-09-03T03:59:46;101297.38;;;18.57;76.82
46954;BME280;32707;43.886;12.874;2022-09-03T04:02:13;101303.41;;;18.56;76.99
46954;BME280;32707;43.886;12.874;2022-09-03T04:04:38;101302.03;;;18.50;77.12
46954;BME280;32707;43.886;12.874;2022-09-03T04:07:04;101306.44;;;18.47;77.22
46954;BME280;32707;43.886;12.874;2022-09-03T04:09:29;101295.81;;;18.44;77.27
46954;BME280;32707;43.886;12.874;2022-09-03T04:11:55;101299.38;;;18.41;77.55
46954;BME280;32707;43.886;12.874;2022-09-03T04:14:24;101295.72;;;18.40;77.39
46954;BME280;32707;43.886;12.874;2022-09-03T04:16:50;101306.59;;;18.38;77.72
46954;BME280;32707;43.886;12.874;2022-09-03T04:19:16;101308.72;;;18.41;77.71
46954;BME280;32707;43.886;12.874;2022-09-03T04:21:42;101300.66;;;18.43;77.48
46954;BME280;32707;43.886;12.874;2022-09-03T04:24:08;101302.75;;;18.46;77.71
46954;BME280;32707;43.886;12.874;2022-09-03T04:26:34;101310.00;;;18.44;77.50
46954;BME280;32707;43.886;12.874;2022-09-03T04:29:03;101319.84;;;18.50;77.56
46954;BME280;32707;43.886;12.874;2022-09-03T04:31:29;101313.47;;;18.53;77.42
46954;BME280;32707;43.886;12.874;2022-09-03T04:33:55;101314.75;;;18.56;77.49
46954;BME280;32707;43.886;12.874;2022-09-03T04:36:22;101312.75;;;18.56;77.60
46954;BME280;32707;43.886;12.874;2022-09-03T04:38:50;101309.53;;;18.58;77.49
46954;BME280;32707;43.886;12.874;2022-09-03T04:41:21;101315.22;;;18.58;77.58
46954;BME280;32707;43.886;12.874;2022-09-03T04:43:50;101304.72;;;18.58;77.56
46954;BME280;32707;43.886;12.874;2022-09-03T04:46:16;101310.38;;;18.58;77.59
46954;BME280;32707;43.886;12.874;2022-09-03T04:48:42;101309.09;;;18.56;77.80
46954;BME280;32707;43.886;12.874;2022-09-03T04:51:13;101303.88;;;18.58;77.63
46954;BME280;32707;43.886;12.874;2022-09-03T04:53:44;101296.31;;;18.62;77.78
46954;BME280;32707;43.886;12.874;2022-09-03T04:56:18;101294.03;;;18.68;77.47
46954;BME280;32707;43.886;12.874;2022-09-03T04:58:45;101293.63;;;18.69;77.55
46954;BME280;32707;43.886;12.874;2022-09-03T05:01:14;101297.78;;;18.72;77.35
46954;BME280;32707;43.886;12.874;2022-09-03T05:03:40;101294.38;;;18.66;77.71
46954;BME280;32707;43.886;12.874;2022-09-03T05:06:05;101310.38;;;18.74;77.66
46954;BME280;32707;43.886;12.874;2022-09-03T05:08:32;101293.09;;;18.79;77.74
46954;BME280;32707;43.886;12.874;2022-09-03T05:11:02;101294.97;;;18.88;77.44
46954;BME280;32707;43.886;12.874;2022-09-03T05:13:27;101296.72;;;18.92;77.54
46954;BME280;32707;43.886;12.874;2022-09-03T05:15:58;101281.50;;;19.00;77.08
46954;BME280;32707;43.886;12.874;2022-09-03T05:18:24;101287.72;;;19.06;77.22
46954;BME280;32707;43.886;12.874;2022-09-03T05:20:57;101280.28;;;19.17;76.73
46954;BME280;32707;43.886;12.874;2022-09-03T05:23:22;101287.13;;;19.32;76.44
46954;BME280;32707;43.886;12.874;2022-09-03T05:25:59;101287.38;;;19.43;76.17
46954;BME280;32707;43.886;12.874;2022-09-03T05:28:25;101295.38;;;19.57;75.92
46954;BME280;32707;43.886;12.874;2022-09-03T05:31:11;101298.47;;;19.68;75.61
46954;BME280;32707;43.886;12.874;2022-09-03T05:33:42;101292.22;;;19.78;75.68
46954;BME280;32707;43.886;12.874;2022-09-03T05:36:10;101291.28;;;19.90;75.22
46954;BME280;32707;43.886;12.874;2022-09-03T05:38:36;101298.28;;;19.96;74.99
46954;BME280;32707;43.886;12.874;2022-09-03T05:41:04;101295.69;;;20.07;75.05
46954;BME280;32707;43.886;12.874;2022-09-03T05:43:31;101299.56;;;20.18;74.46
46954;BME280;32707;43.886;12.874;2022-09-03T05:46:08;101299.22;;;20.23;74.55
46954;BME280;32707;43.886;12.874;2022-09-03T05:48:35;101302.53;;;20.25;74.44
46954;BME280;32707;43.886;12.874;2022-09-03T05:53:28;101305.66;;;20.39;74.15
46954;BME280;32707;43.886;12.874;2022-09-03T05:55:59;101300.78;;;20.40;74.26
46954;BME280;32707;43.886;12.874;2022-09-03T05:58:33;101306.22;;;20.49;73.89
46954;BME280;32707;43.886;12.874;2022-09-03T06:00:59;101303.16;;;20.57;73.98
46954;BME280;32707;43.886;12.874;2022-09-03T06:03:25;101302.41;;;20.61;73.71
46954;BME280;32707;43.886;12.874;2022-09-03T06:05:53;101298.00;;;20.63;73.71
46954;BME280;32707;43.886;12.874;2022-09-03T06:08:22;101311.06;;;20.68;73.49
46954;BME280;32707;43.886;12.874;2022-09-03T06:10:47;101310.13;;;20.83;73.28
46954;BME280;32707;43.886;12.874;2022-09-03T06:13:13;101316.50;;;21.00;73.08
46954;BME280;32707;43.886;12.874;2022-09-03T06:15:38;101317.06;;;21.09;72.99
46954;BME280;32707;43.886;12.874;2022-09-03T06:18:04;101311.00;;;21.10;72.77
46954;BME280;32707;43.886;12.874;2022-09-03T06:20:31;101313.63;;;21.23;72.61
46954;BME280;32707;43.886;12.874;2022-09-03T06:22:57;101313.34;;;21.31;72.24
46954;BME280;32707;43.886;12.874;2022-09-03T06:25:22;101315.50;;;21.38;72.16
46954;BME280;32707;43.886;12.874;2022-09-03T06:27:49;101300.69;;;21.52;71.89
46954;BME280;32707;43.886;12.874;2022-09-03T06:30:14;101305.75;;;21.66;71.57
46954;BME280;32707;43.886;12.874;2022-09-03T06:32:47;101303.09;;;21.80;71.40
46954;BME280;32707;43.886;12.874;2022-09-03T06:35:15;101312.22;;;21.93;71.00
46954;BME280;32707;43.886;12.874;2022-09-03T06:37:41;101307.91;;;22.06;70.86
46954;BME280;32707;43.886;12.874;2022-09-03T06:40:07;101304.41;;;22.20;70.60
46954;BME280;32707;43.886;12.874;2022-09-03T06:42:37;101303.81;;;22.34;70.31
46954;BME280;32707;43.886;12.874;2022-09-03T06:45:03;101301.97;;;22.52;70.00
46954;BME280;32707;43.886;12.874;2022-09-03T06:47:31;101315.97;;;22.68;69.45
46954;BME280;32707;43.886;12.874;2022-09-03T06:49:58;101309.97;;;22.81;69.16
46954;BME280;32707;43.886;12.874;2022-09-03T06:52:25;101310.47;;;22.90;69.20
46954;BME280;32707;43.886;12.874;2022-09-03T06:54:51;101320.72;;;22.98;69.09
46954;BME280;32707;43.886;12.874;2022-09-03T06:57:16;101321.22;;;23.04;68.93
46954;BME280;32707;43.886;12.874;2022-09-03T06:59:42;101326.16;;;23.11;68.80
46954;BME280;32707;43.886;12.874;2022-09-03T07:02:08;101315.59;;;23.15;68.81
46954;BME280;32707;43.886;12.874;2022-09-03T07:04:34;101319.28;;;23.19;68.67
46954;BME280;32707;43.886;12.874;2022-09-03T07:07:00;101318.47;;;23.18;68.56
46954;BME280;32707;43.886;12.874;2022-09-03T07:09:26;101312.81;;;23.22;68.58
46954;BME280;32707;43.886;12.874;2022-09-03T07:11:52;101307.13;;;23.29;68.27
46954;BME280;32707;43.886;12.874;2022-09-03T07:14:19;101305.94;;;23.34;67.94
46954;BME280;32707;43.886;12.874;2022-09-03T07:16:46;101293.34;;;23.42;67.95
46954;BME280;32707;43.886;12.874;2022-09-03T07:19:12;101295.84;;;23.51;67.64
46954;BME280;32707;43.886;12.874;2022-09-03T07:21:38;101290.22;;;23.61;67.36
46954;BME280;32707;43.886;12.874;2022-09-03T07:24:08;101300.03;;;23.67;67.37
46954;BME280;32707;43.886;12.874;2022-09-03T07:26:36;101311.06;;;23.69;67.11
46954;BME280;32707;43.886;12.874;2022-09-03T07:29:03;101320.06;;;23.75;67.17
46954;BME280;32707;43.886;12.874;2022-09-03T07:31:31;101316.84;;;23.80;66.86
46954;BME280;32707;43.886;12.874;2022-09-03T07:33:59;101321.78;;;23.83;66.60
46954;BME280;32707;43.886;12.874;2022-09-03T07:36:27;101321.81;;;23.94;66.40
46954;BME280;32707;43.886;12.874;2022-09-03T07:38:57;101323.53;;;24.09;65.90
46954;BME280;32707;43.886;12.874;2022-09-03T07:41:24;101319.91;;;24.26;65.26
46954;BME280;32707;43.886;12.874;2022-09-03T07:43:51;101319.16;;;24.44;64.79
46954;BME280;32707;43.886;12.874;2022-09-03T07:46:19;101318.38;;;24.54;64.24
46954;BME280;32707;43.886;12.874;2022-09-03T07:48:57;101317.97;;;24.52;64.09
46954;BME280;32707;43.886;12.874;2022-09-03T07:51:25;101323.28;;;24.54;63.94
46954;BME280;32707;43.886;12.874;2022-09-03T07:53:53;101318.41;;;24.61;63.61
46954;BME280;32707;43.886;12.874;2022-09-03T07:56:19;101336.81;;;24.75;63.05
46954;BME280;32707;43.886;12.874;2022-09-03T07:58:45;101332.31;;;24.88;62.67
46954;BME280;32707;43.886;12.874;2022-09-03T08:01:14;101324.97;;;25.01;62.25
46954;BME280;32707;43.886;12.874;2022-09-03T08:03:45;101314.34;;;25.16;61.74
46954;BME280;32707;43.886;12.874;2022-09-03T08:06:11;101322.50;;;25.39;61.04
46954;BME280;32707;43.886;12.874;2022-09-03T08:08:37;101323.72;;;25.60;60.51
46954;BME280;32707;43.886;12.874;2022-09-03T08:11:09;101321.63;;;25.71;60.30
46954;BME280;32707;43.886;12.874;2022-09-03T08:13:45;101325.69;;;25.92;59.52
46954;BME280;32707;43.886;12.874;2022-09-03T08:16:13;101324.81;;;26.09;59.41
46954;BME280;32707;43.886;12.874;2022-09-03T08:18:39;101330.94;;;26.18;59.09
46954;BME280;32707;43.886;12.874;2022-09-03T08:21:09;101327.69;;;26.13;58.71
46954;BME280;32707;43.886;12.874;2022-09-03T08:23:40;101339.19;;;26.06;59.02
46954;BME280;32707;43.886;12.874;2022-09-03T08:26:06;101351.88;;;25.97;58.78
46954;BME280;32707;43.886;12.874;2022-09-03T08:28:39;101354.38;;;25.77;59.34
46954;BME280;32707;43.886;12.874;2022-09-03T08:31:14;101352.75;;;25.66;59.33
46954;BME280;32707;43.886;12.874;2022-09-03T08:33:48;101370.00;;;25.58;59.49
46954;BME280;32707;43.886;12.874;2022-09-03T08:38:43;101378.19;;;25.46;59.65
46954;BME280;32707;43.886;12.874;2022-09-03T08:46:52;101392.50;;;25.31;59.35
46954;BME280;32707;43.886;12.874;2022-09-03T08:49:32;101399.88;;;25.25;59.25
46954;BME280;32707;43.886;12.874;2022-09-03T08:52:02;101404.34;;;25.19;59.53
46954;BME280;32707;43.886;12.874;2022-09-03T08:54:31;101406.38;;;25.18;59.52
46954;BME280;32707;43.886;12.874;2022-09-03T08:57:01;101409.63;;;25.20;59.12
46954;BME280;32707;43.886;12.874;2022-09-03T08:59:29;101410.06;;;25.15;59.17
46954;BME280;32707;43.886;12.874;2022-09-03T09:02:15;101401.88;;;25.07;59.23
46954;BME280;32707;43.886;12.874;2022-09-03T09:07:22;101395.72;;;25.08;59.10
46954;BME280;32707;43.886;12.874;2022-09-03T09:10:02;101407.22;;;25.19;58.88
46954;BME280;32707;43.886;12.874;2022-09-03T09:20:57;101392.47;;;25.56;57.53
46954;BME280;32707;43.886;12.874;2022-09-03T09:23:30;101398.63;;;25.48;57.75
46954;BME280;32707;43.886;12.874;2022-09-03T09:26:00;101406.00;;;25.41;57.72
46954;BME280;32707;43.886;12.874;2022-09-03T09:28:38;101404.34;;;25.33;57.87
46954;BME280;32707;43.886;12.874;2022-09-03T09:31:06;101398.63;;;25.37;57.99
46954;BME280;32707;43.886;12.874;2022-09-03T09:33:36;101401.09;;;25.49;57.47
46954;BME280;32707;43.886;12.874;2022-09-03T09:36:05;101402.66;;;25.83;56.98
46954;BME280;32707;43.886;12.874;2022-09-03T09:38:34;101403.88;;;26.07;56.33
46954;BME280;32707;43.886;12.874;2022-09-03T09:41:11;101408.75;;;26.21;55.70
46954;BME280;32707;43.886;12.874;2022-09-03T09:43:37;101409.09;;;26.37;55.65
46954;BME280;32707;43.886;12.874;2022-09-03T09:51:18;101408.75;;;26.24;55.77
46954;BME280;32707;43.886;12.874;2022-09-03T09:53:44;101407.13;;;26.16;56.05
46954;BME280;32707;43.886;12.874;2022-09-03T09:56:23;101409.63;;;25.99;55.79
46954;BME280;32707;43.886;12.874;2022-09-03T09:58:49;101410.47;;;25.93;56.35
46954;BME280;32707;43.886;12.874;2022-09-03T10:01:21;101402.66;;;25.90;56.24
46954;BME280;32707;43.886;12.874;2022-09-03T10:03:54;101408.84;;;25.81;56.47
46954;BME280;32707;43.886;12.874;2022-09-03T10:06:25;101414.56;;;25.70;56.91
46954;BME280;32707;43.886;12.874;2022-09-03T10:09:15;101405.19;;;25.59;56.77
46954;BME280;32707;43.886;12.874;2022-09-03T10:12:30;101412.13;;;25.51;56.84
46954;BME280;32707;43.886;12.874;2022-09-03T10:15:18;101417.88;;;25.40;57.02
46954;BME280;32707;43.886;12.874;2022-09-03T10:20:51;101418.69;;;25.33;57.23
46954;BME280;32707;43.886;12.874;2022-09-03T10:23:32;101413.78;;;25.23;57.48
46954;BME280;32707;43.886;12.874;2022-09-03T10:26:06;101426.41;;;25.18;57.59
46954;BME280;32707;43.886;12.874;2022-09-03T10:28:35;101413.75;;;25.16;57.80
46954;BME280;32707;43.886;12.874;2022-09-03T10:36:35;101410.03;;;24.97;57.96
46954;BME280;32707;43.886;12.874;2022-09-03T10:42:01;101410.81;;;24.91;58.25
46954;BME280;32707;43.886;12.874;2022-09-03T10:47:24;101411.22;;;24.78;58.63
46954;BME280;32707;43.886;12.874;2022-09-03T10:49:56;101425.09;;;24.73;58.79
46954;BME280;32707;43.886;12.874;2022-09-03T10:52:34;101414.47;;;24.73;58.83
46954;BME280;32707;43.886;12.874;2022-09-03T11:00:38;101411.56;;;24.66;59.25
46954;BME280;32707;43.886;12.874;2022-09-03T11:03:38;101411.56;;;24.62;59.29
46954;BME280;32707;43.886;12.874;2022-09-03T11:06:14;101419.31;;;24.55;59.63
46954;BME280;32707;43.886;12.874;2022-09-03T11:09:36;101409.50;;;24.56;59.73
46954;BME280;32707;43.886;12.874;2022-09-03T11:12:05;101401.72;;;24.53;59.97
46954;BME280;32707;43.886;12.874;2022-09-03T11:14:45;101402.53;;;24.50;60.23
46954;BME280;32707;43.886;12.874;2022-09-03T11:17:26;101404.13;;;24.43;60.46
46954;BME280;32707;43.886;12.874;2022-09-03T11:20:15;101402.47;;;24.35;60.76
46954;BME280;32707;43.886;12.874;2022-09-03T11:22:44;101412.22;;;24.23;61.17
46954;BME280;32707;43.886;12.874;2022-09-03T11:25:13;101409.72;;;24.18;61.35
46954;BME280;32707;43.886;12.874;2022-09-03T11:30:10;101410.91;;;24.06;61.91
46954;BME280;32707;43.886;12.874;2022-09-03T11:32:46;101422.72;;;24.01;62.29
46954;BME280;32707;43.886;12.874;2022-09-03T11:35:24;101419.41;;;23.96;62.60
46954;BME280;32707;43.886;12.874;2022-09-03T11:38:07;101401.81;;;23.90;62.69
46954;BME280;32707;43.886;12.874;2022-09-03T11:40:38;101415.72;;;23.92;62.96
46954;BME280;32707;43.886;12.874;2022-09-03T11:43:06;101414.47;;;23.89;63.09
46954;BME280;32707;43.886;12.874;2022-09-03T11:45:35;101424.69;;;23.90;63.41
46954;BME280;32707;43.886;12.874;2022-09-03T11:48:01;101422.63;;;23.91;63.50
46954;BME280;32707;43.886;12.874;2022-09-03T11:50:51;101419.75;;;23.87;63.62
46954;BME280;32707;43.886;12.874;2022-09-03T11:53:26;101422.19;;;23.85;63.78
46954;BME280;32707;43.886;12.874;2022-09-03T11:55:59;101412.81;;;23.84;64.07
46954;BME280;32707;43.886;12.874;2022-09-03T11:58:30;101420.16;;;23.82;64.38
46954;BME280;32707;43.886;12.874;2022-09-03T12:01:01;101412.00;;;23.84;64.45
46954;BME280;32707;43.886;12.874;2022-09-03T12:03:40;101424.25;;;23.88;64.69
46954;BME280;32707;43.886;12.874;2022-09-03T12:14:35;101408.25;;;23.76;65.89
46954;BME280;32707;43.886;12.874;2022-09-03T12:19:54;101416.06;;;23.83;66.08
46954;BME280;32707;43.886;12.874;2022-09-03T12:22:25;101403.00;;;23.85;66.13
46954;BME280;32707;43.886;12.874;2022-09-03T12:24:53;101407.50;;;23.83;66.37
46954;BME280;32707;43.886;12.874;2022-09-03T12:27:22;101397.28;;;23.82;66.51
46954;BME280;32707;43.886;12.874;2022-09-03T12:30:00;101402.53;;;23.76;66.75
46954;BME280;32707;43.886;12.874;2022-09-03T12:32:29;101402.09;;;23.78;67.07
46954;BME280;32707;43.886;12.874;2022-09-03T12:34:57;101400.47;;;23.77;67.19
46954;BME280;32707;43.886;12.874;2022-09-03T12:37:25;101399.72;;;23.83;67.33
46954;BME280;32707;43.886;12.874;2022-09-03T12:39:54;101398.13;;;23.86;67.45
46954;BME280;32707;43.886;12.874;2022-09-03T12:42:28;101401.00;;;23.86;67.56
46954;BME280;32707;43.886;12.874;2022-09-03T12:45:04;101396.47;;;23.85;67.75
46954;BME280;32707;43.886;12.874;2022-09-03T12:47:30;101392.81;;;23.84;67.89
46954;BME280;32707;43.886;12.874;2022-09-03T12:50:06;101376.47;;;23.85;67.71
46954;BME280;32707;43.886;12.874;2022-09-03T12:55:43;101373.78;;;24.10;67.31
46954;BME280;32707;43.886;12.874;2022-09-03T12:58:18;101374.22;;;24.23;67.02
46954;BME280;32707;43.886;12.874;2022-09-03T13:00:57;101368.16;;;24.39;66.62
46954;BME280;32707;43.886;12.874;2022-09-03T13:06:07;101362.16;;;24.91;65.57
46954;BME280;32707;43.886;12.874;2022-09-03T13:08:48;101354.00;;;25.07;65.37
46954;BME280;32707;43.886;12.874;2022-09-03T13:11:17;101343.00;;;25.24;64.99
46954;BME280;32707;43.886;12.874;2022-09-03T13:16:43;101336.00;;;25.64;63.86
46954;BME280;32707;43.886;12.874;2022-09-03T13:33:20;101319.88;;;26.17;62.25
46954;BME280;32707;43.886;12.874;2022-09-03T13:36:25;101310.94;;;25.97;62.38
46954;BME280;32707;43.886;12.874;2022-09-03T13:38:58;101298.28;;;25.76;63.04
46954;BME280;32707;43.886;12.874;2022-09-03T13:41:46;101289.75;;;25.58;63.30
46954;BME280;32707;43.886;12.874;2022-09-03T13:44:23;101282.41;;;25.39;63.78
46954;BME280;32707;43.886;12.874;2022-09-03T13:47:02;101276.72;;;25.32;63.76
46954;BME280;32707;43.886;12.874;2022-09-03T13:50:08;101262.75;;;25.45;63.38
46954;BME280;32707;43.886;12.874;2022-09-03T13:53:18;101250.06;;;25.53;62.92
46954;BME280;32707;43.886;12.874;2022-09-03T13:55:54;101250.44;;;25.63;62.80
46954;BME280;32707;43.886;12.874;2022-09-03T13:58:29;101259.81;;;25.74;62.53
46954;BME280;32707;43.886;12.874;2022-09-03T14:03:46;101278.56;;;26.04;61.85
46954;BME280;32707;43.886;12.874;2022-09-03T14:06:37;101290.25;;;26.38;61.17
46954;BME280;32707;43.886;12.874;2022-09-03T14:09:51;101301.50;;;26.74;60.48
46954;BME280;32707;43.886;12.874;2022-09-03T14:12:13;101314.69;;;26.68;60.38
46954;BME280;32707;43.886;12.874;2022-09-03T14:17:15;101324.09;;;26.68;60.84
46954;BME280;32707;43.886;12.874;2022-09-03T14:20:01;101326.19;;;27.17;59.67
46954;BME280;32707;43.886;12.874;2022-09-03T14:25:28;101336.59;;;27.86;57.90
46954;BME280;32707;43.886;12.874;2022-09-03T14:36:06;101354.88;;;27.69;58.35
46954;BME280;32707;43.886;12.874;2022-09-03T14:41:31;101361.34;;;28.15;56.95
46954;BME280;32707;43.886;12.874;2022-09-03T14:52:39;101358.78;;;27.89;56.99
46954;BME280;32707;43.886;12.874;2022-09-03T14:56:04;101351.34;;;27.88;56.97
46954;BME280;32707;43.886;12.874;2022-09-03T15:01:02;101340.09;;;27.25;58.01
46954;BME280;32707;43.886;12.874;2022-09-03T15:06:36;101329.69;;;27.80;56.46
46954;BME280;32707;43.886;12.874;2022-09-03T15:09:10;101323.50;;;28.20;55.56
46954;BME280;32707;43.886;12.874;2022-09-03T15:14:55;101317.69;;;28.54;54.85
46954;BME280;32707;43.886;12.874;2022-09-03T15:20:18;101314.59;;;28.38;54.52
46954;BME280;32707;43.886;12.874;2022-09-03T15:34:09;101315.06;;;28.02;54.37
46954;BME280;32707;43.886;12.874;2022-09-03T15:36:40;101309.88;;;27.93;54.71
46954;BME280;32707;43.886;12.874;2022-09-03T15:39:30;101307.13;;;27.79;55.11
46954;BME280;32707;43.886;12.874;2022-09-03T15:42:07;101308.50;;;27.67;55.20
46954;BME280;32707;43.886;12.874;2022-09-03T15:44:47;101308.16;;;27.61;55.16
46954;BME280;32707;43.886;12.874;2022-09-03T15:47:40;101311.13;;;27.50;55.51
46954;BME280;32707;43.886;12.874;2022-09-03T15:50:34;101306.75;;;27.39;55.38
46954;BME280;32707;43.886;12.874;2022-09-03T15:58:50;101311.47;;;27.11;55.77
46954;BME280;32707;43.886;12.874;2022-09-03T16:01:38;101316.09;;;27.01;55.72